createdAt,value
2018-09-10T00:48:39.883Z,95837.44
2018-09-10T00:53:43.975Z,95838.50
2018-09-10T00:58:47.306Z,95841.72
2018-09-10T02:35:51.454Z,95823.83
2018-09-10T02:40:54.787Z,95839.48
2018-09-10T03:49:15.032Z,95816.21
2018-09-10T03:54:18.387Z,95819.53
2018-09-10T03:59:22.480Z,95822.84
2018-09-10T04:33:12.018Z,95850.28
2018-09-10T04:38:15.347Z,95852.55
2018-09-10T04:43:18.678Z,95866.72
2018-09-10T04:48:22.763Z,95877.59
2018-09-10T04:53:26.090Z,95890.19
2018-09-10T04:58:29.422Z,95887.73
2018-09-10T05:03:33.534Z,95893.50
2018-09-10T05:08:36.865Z,95896.19
2018-09-10T05:13:40.194Z,95901.91
2018-09-10T05:18:44.287Z,95920.11
2018-09-10T05:23:47.613Z,95920.94
2018-09-10T05:28:50.956Z,95920.63
2018-09-10T05:33:55.065Z,95934.47
2018-09-10T05:38:58.794Z,95939.08
2018-09-10T05:44:02.903Z,95945.15
2018-09-10T05:49:06.241Z,95943.71
2018-09-10T05:54:10.335Z,95941.44
2018-09-10T05:59:14.133Z,95946.58
2018-09-10T06:04:17.471Z,95940.55
2018-09-10T06:09:20.790Z,95948.86
2018-09-10T06:14:24.115Z,95954.43
2018-09-10T06:19:27.445Z,95951.23
2018-09-10T06:24:31.550Z,95947.97
2018-09-10T06:29:34.871Z,95946.86
2018-09-10T07:03:23.942Z,95953.06
2018-09-10T07:08:27.266Z,95958.35
2018-09-10T07:13:31.362Z,95969.16
2018-09-10T08:04:37.418Z,96001.63
2018-09-10T08:09:40.815Z,96006.00
2018-09-10T08:14:44.094Z,96012.81
2018-09-10T09:05:48.577Z,96001.58
2018-09-10T09:10:51.918Z,96008.75
2018-09-10T10:01:56.277Z,95963.78
2018-09-10T10:06:59.937Z,95969.81
2018-09-10T10:12:03.390Z,95978.68
2018-09-10T11:03:08.243Z,95984.29
2018-09-10T11:08:12.346Z,95985.77
2018-09-10T11:13:15.679Z,95981.88
2018-09-10T12:04:22.494Z,95973.14
2018-09-10T12:09:25.822Z,95966.27
2018-09-10T12:14:29.924Z,95972.58
2018-09-10T13:05:36.038Z,95940.86
2018-09-10T13:10:39.399Z,95953.86
2018-09-10T14:01:44.351Z,95915.37
2018-09-10T14:06:47.677Z,95916.86
2018-09-10T14:11:51.786Z,95907.42
2018-09-10T14:45:54.852Z,95891.72
2018-09-10T14:50:58.202Z,95890.62
2018-09-10T14:56:01.544Z,95893.41
2018-09-10T15:35:36.443Z,95889.72
2018-09-10T15:40:39.833Z,95880.43
2018-09-10T15:45:43.099Z,95885.83
2018-09-10T15:50:46.433Z,95880.97
2018-09-10T16:05:12.220Z,95889.70
2018-09-10T16:10:15.564Z,95887.94
2018-09-10T16:15:24.375Z,95891.28
2018-09-10T16:20:27.706Z,95891.45
2018-09-10T16:25:50.783Z,95886.63
2018-09-10T16:30:54.115Z,95892.43
2018-09-10T16:36:08.726Z,95894.09
2018-09-10T16:41:12.121Z,95893.66
2018-09-10T16:46:20.802Z,95903.62
2018-09-10T16:51:24.138Z,95902.16
2018-09-10T16:56:27.485Z,95901.52
2018-09-10T17:01:31.805Z,95906.76
2018-09-10T17:06:43.113Z,95911.26
2018-09-10T17:11:46.469Z,95902.03
2018-09-10T17:16:49.807Z,95919.94
2018-09-10T17:21:53.136Z,95921.33
2018-09-10T17:26:56.463Z,95917.22
2018-09-10T17:32:00.562Z,95915.71
2018-09-10T17:37:03.888Z,95921.88
2018-09-10T17:42:07.215Z,95921.77
2018-09-10T17:47:11.485Z,95928.86
2018-09-10T17:52:14.706Z,95935.17
2018-09-10T17:57:18.036Z,95934.25
2018-09-10T18:02:21.371Z,95944.48
2018-09-10T18:07:25.476Z,95947.52
2018-09-10T18:12:28.809Z,95952.03
2018-09-10T18:17:32.144Z,95959.41
2018-09-10T18:22:36.246Z,95964.86
2018-09-10T18:27:39.568Z,95968.96
2018-09-10T18:32:42.899Z,95974.39
2018-09-10T18:37:46.986Z,95968.63
2018-09-10T18:42:55.658Z,95970.20
2018-09-10T18:47:59.750Z,95974.92
2018-09-10T18:53:03.079Z,95977.56
2018-09-10T18:58:10.438Z,95982.75
2018-09-10T19:03:22.710Z,95985.09
2018-09-10T19:08:26.051Z,95978.48
2018-09-10T19:13:30.147Z,95979.91
2018-09-10T19:18:33.479Z,95983.35
2018-09-10T19:23:37.209Z,95980.05
2018-09-10T19:28:40.564Z,95971.76
2018-09-10T19:33:43.887Z,95976.22
2018-09-10T19:38:47.223Z,95973.96
2018-09-10T19:43:50.549Z,95971.55
2018-09-10T19:48:53.883Z,95981.73
2018-09-10T19:53:57.980Z,95988.11
2018-09-10T19:59:01.305Z,95986.72
2018-09-10T20:04:04.636Z,95985.51
2018-09-10T20:09:08.739Z,95996.11
2018-09-10T20:14:12.073Z,95989.21
2018-09-10T20:19:16.161Z,95994.48
2018-09-10T20:24:19.503Z,95996.95
2018-09-10T20:29:22.835Z,96001.23
2018-09-10T20:34:26.173Z,95996.58
2018-09-10T20:39:30.015Z,96002.27
2018-09-10T20:44:33.816Z,96020.89
2018-09-10T20:49:37.263Z,96018.59
2018-09-10T20:54:40.854Z,96021.42
2018-09-10T20:59:44.552Z,96034.09
2018-09-10T21:04:48.647Z,96026.12
2018-09-10T21:09:51.973Z,96030.27
2018-09-10T21:14:55.308Z,96032.91
2018-09-10T21:19:59.403Z,96028.83
2018-09-10T21:25:02.765Z,96027.75
2018-09-10T21:30:06.516Z,96032.83
2018-09-10T21:35:09.843Z,96033.48
2018-09-10T21:40:13.172Z,96025.88
2018-09-10T21:45:16.652Z,96037.44
2018-09-10T21:50:20.886Z,96028.79
2018-09-10T21:55:24.210Z,96035.96
2018-09-10T22:00:27.539Z,96036.33
2018-09-10T22:05:31.022Z,96038.87
2018-09-10T22:10:34.417Z,96041.77
2018-09-10T22:15:38.067Z,96034.72
2018-09-10T22:20:41.394Z,96030.25
2018-09-10T22:25:45.108Z,96026.31
2018-09-10T22:30:48.821Z,96021.41
2018-09-10T22:35:52.548Z,96015.24
2018-09-10T22:40:55.894Z,96013.30
2018-09-10T22:46:00.004Z,96011.73
2018-09-10T22:51:03.370Z,96020.75
2018-09-10T22:56:07.020Z,96021.20
2018-09-10T23:01:10.389Z,96019.39
2018-09-10T23:06:14.046Z,96010.47
2018-09-10T23:11:17.371Z,96012.75
